Etusivu
METAR-TAF:

METAR-TAF

Lentoasemat :

Gage, Oklahoma, Yhdysvallat

Leveyspiiri: 36-17-48N, Pituuspiiri: 099-46-08W, korkeus merenpinnasta: 677 m

Tämänhetkinen sää

Tämä raportti tehtiin 18 minuuttia sitten, kello 09.53 UTC
Tuuli 8 kn pohjoisesta
Lämpötila 4°C
Kosteus 70%
Ilmanpaine 1024 hPa
Näkyvyys: 16.1 km
selkeää

METAR: KGAG 060953Z AUTO 35008KT 10SM CLR 04/M01 A3023 RMK AO2 SLP232 T00441006

Aika: 04:11 (10:11 UTC)


TAF: puuttuu

Säähavainnot ja -ennusteet yli 4000 lentoasemalta (METAR- ja TAF-raportit).

Käytössä olevat sääasemat on merkitty karttaan keltaisilla ja punaisilla pisteillä.

Aseta hiiri pisteen päälle nähdäksesi sääaseman nimen.

Klikkaa sitten nähdäksesi säähavainnot ja -ennusteet.

Kartan vaihtaminen: klikkaa mustalla rastilla varustettuja vihreitä pisteitä, niin voit zoomata sisään; viivalla varustettua vihreää pistettä, niin voit zoomata ulos tai vihreitä nuolia, niin pääset viereisille kartoille.


METAR-TAF: